Time;durP1;ratioP1;P1;durP2;ratioP2;P2;SDS_P1;SDS_P2;PMS_P1;PMS_P2;Temp;Humidity;BMP_temperature;BMP_pressure;BME280_temperature;BME280_humidity;BME280_pressure;Samples;Min_cycle;Max_cycle;Signal;HPM_P1;HPM_P2
2022/05/16 00:01:43;;;;;;;10.40;3.80;;;17.30;93.40;;;;;;5012468;28;20278;-92
2022/05/16 00:04:12;;;;;;;12.53;4.90;;;17.40;93.60;;;;;;5014024;28;20223;-91
2022/05/16 00:06:41;;;;;;;10.30;4.37;;;17.20;93.60;;;;;;5013240;28;20211;-92
2022/05/16 00:09:10;;;;;;;7.23;3.80;;;17.40;93.80;;;;;;5010731;28;20207;-92
2022/05/16 00:11:38;;;;;;;13.03;3.83;;;17.30;93.70;;;;;;5007876;28;20246;-92
2022/05/16 00:14:07;;;;;;;13.00;4.10;;;17.10;93.90;;;;;;5006354;28;20207;-91
2022/05/16 00:16:35;;;;;;;10.27;4.37;;;17.30;94.10;;;;;;5008739;28;20649;-91
2022/05/16 00:19:09;;;;;;;14.70;4.23;;;17.40;94.20;;;;;;5010066;28;20224;-90
2022/05/16 00:21:38;;;;;;;9.97;3.70;;;17.40;94.30;;;;;;5010513;28;20202;-92
2022/05/16 00:24:12;;;;;;;8.90;3.87;;;17.20;94.40;;;;;;5007167;28;20271;-91
2022/05/16 00:26:42;;;;;;;11.17;4.20;;;17.20;94.30;;;;;;4989846;28;20207;-91
2022/05/16 00:29:12;;;;;;;9.70;4.47;;;17.20;94.50;;;;;;5008353;28;20214;-92
2022/05/16 00:31:42;;;;;;;9.43;3.90;;;17.70;96.30;;;;;;5007789;28;20203;-92
2022/05/16 00:34:13;;;;;;;11.33;4.50;;;17.30;95.20;;;;;;5005315;28;20216;-90
2022/05/16 00:36:43;;;;;;;10.90;4.80;;;17.00;95.30;;;;;;4990458;28;20250;-93
2022/05/16 00:39:21;;;;;;;11.10;5.37;;;17.20;96.10;;;;;;5009588;28;20437;-91
2022/05/16 00:41:51;;;;;;;9.93;3.77;;;17.40;96.00;;;;;;5009231;28;20199;-92
2022/05/16 00:44:22;;;;;;;12.23;4.03;;;17.40;96.60;;;;;;4993095;28;20212;-92
2022/05/16 00:46:54;;;;;;;14.50;4.63;;;18.10;97.00;;;;;;4991281;28;20224;-92
2022/05/16 00:49:29;;;;;;;11.90;4.37;;;16.90;96.30;;;;;;5004235;28;20223;-92
2022/05/16 00:52:11;;;;;;;13.90;5.23;;;16.50;96.10;;;;;;4990652;28;20266;-92
2022/05/16 00:54:44;;;;;;;9.17;4.90;;;16.80;96.50;;;;;;4988891;28;20255;-92
2022/05/16 00:57:26;;;;;;;12.20;4.53;;;16.00;96.60;;;;;;4986366;28;20338;-91
2022/05/16 01:00:09;;;;;;;13.00;4.70;;;16.70;97.20;;;;;;4983145;28;20303;-91
2022/05/16 01:05:32;;;;;;;15.47;4.57;;;16.50;97.90;;;;;;4986226;28;20231;-90
2022/05/16 01:08:04;;;;;;;10.43;4.73;;;16.50;98.00;;;;;;4997838;28;20212;-94
2022/05/16 01:10:36;;;;;;;14.87;4.30;;;16.60;98.30;;;;;;4982613;28;20219;-92
2022/05/16 01:13:04;;;;;;;11.87;4.50;;;16.60;98.70;;;;;;5002473;28;20244;-91
2022/05/16 01:15:39;;;;;;;9.70;3.77;;;16.90;99.10;;;;;;5000232;28;20220;-92
2022/05/16 01:18:11;;;;;;;12.37;4.27;;;16.30;98.90;;;;;;5000135;28;20250;-92
2022/05/16 01:21:20;;;;;;;9.57;4.33;;;16.80;99.40;;;;;;4993423;28;20716;-93
2022/05/16 01:23:49;;;;;;;9.93;4.90;;;;;;;;;;4999184;28;20236;-94
2022/05/16 01:26:24;;;;;;;7.87;3.80;;;16.10;99.00;;;;;;5024504;28;20221;-92
2022/05/16 01:28:59;;;;;;;14.97;4.77;;;16.10;99.50;;;;;;5014368;28;20235;-92
2022/05/16 01:31:33;;;;;;;8.03;4.60;;;16.10;99.70;;;;;;5001483;28;20206;-93
2022/05/16 01:34:13;;;;;;;13.43;5.60;;;16.00;99.90;;;;;;5000974;28;20210;-92
2022/05/16 01:36:53;;;;;;;12.47;5.30;;;15.90;99.90;;;;;;5003440;28;20306;-94
2022/05/16 01:39:24;;;;;;;17.10;5.20;;;15.80;99.90;;;;;;5001801;28;20222;-92
2022/05/16 01:41:53;;;;;;;10.53;5.07;;;15.70;99.90;;;;;;5001818;28;20218;-92
2022/05/16 01:44:21;;;;;;;11.30;5.63;;;15.60;99.90;;;;;;5002328;28;20195;-92
2022/05/16 01:47:03;;;;;;;13.20;5.20;;;15.60;99.90;;;;;;5002182;28;20214;-93
2022/05/16 01:49:52;;;;;;;11.77;5.60;;;15.50;99.90;;;;;;4982518;28;20208;-93
2022/05/16 01:52:22;;;;;;;12.07;5.77;;;15.40;99.90;;;;;;4996153;28;20208;-92
2022/05/16 01:54:59;;;;;;;11.33;6.13;;;15.30;99.90;;;;;;5001968;28;20204;-92
2022/05/16 01:57:31;;;;;;;15.60;7.93;;;15.30;99.90;;;;;;4983045;28;20247;-93
2022/05/16 02:00:09;;;;;;;12.43;5.67;;;15.20;99.90;;;;;;4991336;28;20233;-92
2022/05/16 02:02:56;;;;;;;10.43;6.00;;;15.20;99.90;;;;;;5003446;28;20214;-92
2022/05/16 02:05:46;;;;;;;10.80;5.83;;;15.10;99.90;;;;;;4999130;28;20207;-93
2022/05/16 02:08:20;;;;;;;7.73;5.17;;;15.00;99.90;;;;;;5015525;28;20218;-94
2022/05/16 02:10:57;;;;;;;11.37;6.27;;;15.00;99.90;;;;;;5005919;28;20227;-93
2022/05/16 02:13:28;;;;;;;9.33;5.87;;;14.90;99.90;;;;;;5006852;28;20257;-96
2022/05/16 02:16:00;;;;;;;8.57;5.53;;;14.90;99.90;;;;;;5006698;28;20200;-94
2022/05/16 02:18:36;;;;;;;10.23;6.60;;;14.90;99.90;;;;;;4970543;28;20208;-93
2022/05/16 02:26:57;;;;;;;17.17;6.27;;;14.80;99.90;;;;;;4990534;28;20276;-94
2022/05/16 02:29:54;;;;;;;13.97;6.27;;;14.70;99.90;;;;;;5006192;28;20214;-95
2022/05/16 02:32:38;;;;;;;17.77;6.53;;;14.70;99.90;;;;;;5002917;28;20266;-94
2022/05/16 02:35:08;;;;;;;14.40;6.37;;;14.70;99.90;;;;;;5000469;28;20202;-92
2022/05/16 02:37:42;;;;;;;18.47;6.80;;;14.70;99.90;;;;;;4996395;28;20219;-91
2022/05/16 02:40:15;;;;;;;16.37;6.27;;;14.70;99.90;;;;;;5002405;28;20234;-94
2022/05/16 02:42:47;;;;;;;14.60;7.17;;;14.60;99.90;;;;;;5011316;28;20230;-94
2022/05/16 02:45:18;;;;;;;14.33;6.40;;;14.60;99.90;;;;;;5015152;28;20214;-96
2022/05/16 02:47:49;;;;;;;12.10;6.90;;;14.60;99.90;;;;;;4995796;28;20222;-93
2022/05/16 02:50:20;;;;;;;13.27;6.80;;;14.50;99.90;;;;;;4993992;28;20222;-93
2022/05/16 02:52:48;;;;;;;14.63;6.87;;;14.40;99.90;;;;;;4994869;28;20270;-91
2022/05/16 02:55:22;;;;;;;13.63;7.43;;;14.40;99.90;;;;;;4994962;28;20183;-92
2022/05/16 02:58:35;;;;;;;16.20;8.00;;;14.40;99.90;;;;;;5007882;28;20305;-92
2022/05/16 03:05:28;;;;;;;14.07;7.00;;;14.70;99.90;;;;;;5009333;28;20189;-95
2022/05/16 03:08:18;;;;;;;13.07;6.53;;;14.20;99.90;;;;;;5008816;28;20203;-92
2022/05/16 03:11:22;;;;;;;15.47;7.10;;;13.80;99.90;;;;;;5010029;28;20225;-95
2022/05/16 03:18:43;;;;;;;11.83;6.70;;;14.00;99.90;;;;;;5007974;28;20164;-93
2022/05/16 03:21:22;;;;;;;11.13;6.97;;;14.40;99.90;;;;;;5005217;28;20241;-95
2022/05/16 03:24:27;;;;;;;17.83;7.30;;;14.10;99.90;;;;;;5002692;28;20233;-94
2022/05/16 03:27:00;;;;;;;14.27;6.83;;;13.80;99.90;;;;;;4999846;28;20214;-93
2022/05/16 03:29:36;;;;;;;12.60;7.57;;;13.70;99.90;;;;;;5007716;28;20296;-95
2022/05/16 03:32:13;;;;;;;13.83;7.43;;;13.70;99.90;;;;;;5004409;28;20205;-92
2022/05/16 03:34:45;;;;;;;15.97;7.07;;;13.70;99.90;;;;;;5001878;28;20282;-94
2022/05/16 03:37:25;;;;;;;12.83;6.97;;;13.70;99.90;;;;;;5002653;28;20305;-93
2022/05/16 03:42:42;;;;;;;15.20;7.53;;;13.70;99.90;;;;;;5012626;28;20226;-92
2022/05/16 03:45:11;;;;;;;11.90;7.07;;;13.60;99.90;;;;;;5014370;28;20209;-93
2022/05/16 03:47:59;;;;;;;10.27;6.60;;;13.60;99.90;;;;;;5014107;28;20210;-95
2022/05/16 03:50:37;;;;;;;13.97;7.13;;;13.60;99.90;;;;;;5016947;28;20204;-95
2022/05/16 03:53:21;;;;;;;16.70;7.70;;;13.30;99.90;;;;;;5017077;28;20315;-94
2022/05/16 03:56:02;;;;;;;15.83;7.57;;;13.60;99.90;;;;;;4997304;28;20185;-95
2022/05/16 03:59:19;;;;;;;13.30;7.37;;;13.60;99.90;;;;;;5017396;28;20222;-95
2022/05/16 04:05:29;;;;;;;13.13;7.17;;;13.30;99.90;;;;;;4998255;28;20167;-95
2022/05/16 04:08:05;;;;;;;14.33;7.37;;;13.80;99.90;;;;;;4997779;28;20187;-94
2022/05/16 04:11:17;;;;;;;15.07;7.43;;;13.60;99.90;;;;;;5016421;28;20194;-95
2022/05/16 04:13:52;;;;;;;11.13;7.60;;;13.70;99.90;;;;;;5003362;28;20237;-93
2022/05/16 04:16:25;;;;;;;16.03;8.30;;;13.60;99.90;;;;;;5051106;23;20239;-77
2022/05/16 04:18:52;;;;;;;16.77;8.63;;;13.70;99.90;;;;;;5033848;28;20829;-77
2022/05/16 04:21:19;;;;;;;14.20;7.83;;;13.70;99.90;;;;;;5023192;28;20233;-78
2022/05/16 04:23:46;;;;;;;14.27;7.33;;;13.80;99.90;;;;;;5017278;28;20197;-79
2022/05/16 04:26:13;;;;;;;15.57;8.43;;;13.80;99.90;;;;;;5022810;28;20229;-78
2022/05/16 04:28:39;;;;;;;13.07;7.17;;;13.80;99.90;;;;;;5024828;28;20343;-78
2022/05/16 04:31:06;;;;;;;11.23;7.07;;;13.80;99.90;;;;;;5017534;28;20206;-79
2022/05/16 04:33:35;;;;;;;17.00;7.57;;;13.80;99.90;;;;;;5027397;28;20221;-78
2022/05/16 04:36:02;;;;;;;15.23;7.77;;;13.80;99.90;;;;;;5027355;28;20224;-78
2022/05/16 04:38:29;;;;;;;16.00;7.47;;;13.80;99.90;;;;;;5030710;28;20212;-78
2022/05/16 04:43:41;;;;;;;18.70;8.30;;;13.90;99.90;;;;;;5025045;28;20304;-77
2022/05/16 04:46:09;;;;;;;13.77;8.03;;;13.90;99.90;;;;;;5021978;28;20402;-78
2022/05/16 04:48:36;;;;;;;15.20;7.77;;;13.90;99.90;;;;;;5029025;28;20294;-78
2022/05/16 04:51:03;;;;;;;14.53;8.10;;;13.90;99.90;;;;;;5019969;28;20209;-79
2022/05/16 04:53:30;;;;;;;14.67;8.13;;;14.00;99.90;;;;;;5029563;28;20691;-78
2022/05/16 04:55:58;;;;;;;12.10;8.30;;;14.10;99.90;;;;;;5030775;28;20229;-79
2022/05/16 04:58:25;;;;;;;10.53;7.40;;;14.10;99.90;;;;;;5030388;28;20205;-78
2022/05/16 05:00:52;;;;;;;12.53;7.90;;;14.20;99.90;;;;;;5025430;28;20316;-78
2022/05/16 05:03:19;;;;;;;9.73;6.93;;;14.20;99.90;;;;;;5031892;28;20384;-77
2022/05/16 05:05:47;;;;;;;18.23;8.50;;;14.30;99.90;;;;;;5032558;28;20661;-79
2022/05/16 05:08:13;;;;;;;12.53;7.97;;;14.40;99.90;;;;;;5025019;28;20289;-78
2022/05/16 05:16:22;;;;;;;11.10;7.27;;;14.70;99.90;;;;;;5029271;28;20649;-81
2022/05/16 05:18:49;;;;;;;12.77;7.30;;;14.80;99.90;;;;;;5034194;28;20208;-77
2022/05/16 05:21:16;;;;;;;12.57;7.93;;;14.90;99.90;;;;;;5018912;28;20313;-78
2022/05/16 05:23:43;;;;;;;12.60;7.13;;;15.00;99.90;;;;;;5029072;28;20574;-76
2022/05/16 05:26:11;;;;;;;13.00;7.63;;;15.10;99.90;;;;;;5036310;28;20214;-77
2022/05/16 05:28:39;;;;;;;18.03;7.17;;;15.20;99.90;;;;;;5026868;28;20646;-78
2022/05/16 05:31:11;;;;;;;15.43;7.10;;;15.20;99.90;;;;;;5019154;28;20291;-77
2022/05/16 05:33:39;;;;;;;13.10;6.63;;;15.40;99.90;;;;;;5018408;28;20685;-78
2022/05/16 05:36:08;;;;;;;12.43;6.73;;;15.50;99.90;;;;;;5019634;28;20339;-78
2022/05/16 05:38:36;;;;;;;10.40;6.13;;;15.80;99.90;;;;;;5023738;28;20608;-78
2022/05/16 05:41:04;;;;;;;10.70;6.20;;;15.90;99.90;;;;;;5026370;28;20222;-78
2022/05/16 05:43:32;;;;;;;11.57;5.90;;;16.60;99.90;;;;;;5014937;28;20298;-78
2022/05/16 05:45:58;;;;;;;11.85;5.68;;;18.10;99.90;;;;;;5026332;28;20209;-77
2022/05/16 05:48:26;;;;;;;13.07;5.35;;;18.80;99.90;;;;;;5022270;28;20235;-79
2022/05/16 05:50:52;;;;;;;7.43;4.97;;;19.90;99.90;;;;;;5038895;28;20201;-77
2022/05/16 05:53:20;;;;;;;10.88;5.18;;;20.80;99.90;;;;;;5025934;28;20206;-79
2022/05/16 05:55:47;;;;;;;11.65;4.88;;;21.70;99.90;;;;;;5022225;28;20329;-78
2022/05/16 05:58:17;;;;;;;9.73;5.07;;;22.50;99.90;;;;;;5033882;28;20263;-78
2022/05/16 06:00:44;;;;;;;15.40;5.40;;;23.40;99.90;;;;;;5025152;28;20229;-78
2022/05/16 06:03:11;;;;;;;13.60;5.25;;;24.10;99.90;;;;;;5021694;28;20194;-76
2022/05/16 06:05:38;;;;;;;13.48;5.18;;;24.50;99.90;;;;;;5026743;28;20212;-78
2022/05/16 06:08:05;;;;;;;11.88;5.00;;;24.80;99.90;;;;;;5023290;28;20638;-78
2022/05/16 06:10:33;;;;;;;9.90;4.75;;;25.10;99.90;;;;;;5018130;28;20225;-78
2022/05/16 06:13:01;;;;;;;15.15;5.00;;;25.40;99.90;;;;;;5041705;28;20204;-79
2022/05/16 06:15:28;;;;;;;11.07;5.13;;;25.90;99.90;;;;;;5026104;28;20682;-79
2022/05/16 06:17:54;;;;;;;8.45;4.45;;;26.40;99.50;;;;;;5021837;28;20267;-78
2022/05/16 06:20:22;;;;;;;17.50;5.68;;;26.70;97.90;;;;;;5019037;28;20229;-77
2022/05/16 06:22:49;;;;;;;12.98;4.80;;;26.90;96.10;;;;;;5026560;28;20202;-77
2022/05/16 06:25:39;;;;;;;11.23;5.35;;;26.80;95.40;;;;;;5022340;28;20229;-76
2022/05/16 06:28:16;;;;;;;10.65;5.18;;;26.30;94.60;;;;;;5024901;28;20296;-78
2022/05/16 06:30:45;;;;;;;11.73;4.63;;;25.70;94.70;;;;;;5020915;28;20283;-76
2022/05/16 06:33:15;;;;;;;10.48;4.85;;;25.30;95.00;;;;;;5033823;28;20372;-77
2022/05/16 06:35:42;;;;;;;8.65;4.68;;;25.10;95.60;;;;;;5029334;28;20240;-76
2022/05/16 06:38:19;;;;;;;12.18;5.18;;;25.10;95.80;;;;;;5022741;28;20204;-76
2022/05/16 06:40:47;;;;;;;15.55;4.80;;;25.00;95.50;;;;;;5019310;28;20741;-76
2022/05/16 06:43:17;;;;;;;9.98;4.63;;;24.90;95.60;;;;;;5024957;28;20646;-76
2022/05/16 06:45:43;;;;;;;10.93;5.57;;;24.50;95.70;;;;;;5024961;28;20198;-77
2022/05/16 06:48:11;;;;;;;11.52;4.75;;;24.10;96.00;;;;;;5040644;28;20550;-76
2022/05/16 06:50:40;;;;;;;12.73;5.63;;;23.80;96.40;;;;;;5025438;28;20633;-77
2022/05/16 06:53:11;;;;;;;12.18;5.00;;;23.40;96.90;;;;;;5026645;28;20248;-75
2022/05/16 06:55:38;;;;;;;10.80;5.65;;;23.20;98.80;;;;;;5020861;28;20600;-76
2022/05/16 06:58:04;;;;;;;17.17;5.20;;;23.00;97.90;;;;;;5022897;28;20206;-77
2022/05/16 07:00:31;;;;;;;15.27;5.43;;;22.80;98.30;;;;;;5024067;28;20644;-77
2022/05/16 07:02:58;;;;;;;16.98;5.30;;;22.70;98.70;;;;;;5025154;28;20198;-76
2022/05/16 07:05:43;;;;;;;14.13;5.90;;;22.80;99.40;;;;;;5023087;28;20240;-76
2022/05/16 07:08:10;;;;;;;13.23;5.22;;;22.40;99.60;;;;;;5018266;28;20631;-77
2022/05/16 07:10:37;;;;;;;9.52;5.07;;;22.40;99.90;;;;;;5025200;28;20329;-76
2022/05/16 07:13:03;;;;;;;10.30;4.68;;;22.40;99.90;;;;;;5024817;28;20229;-78
2022/05/16 07:15:30;;;;;;;12.35;5.47;;;22.40;99.90;;;;;;5038951;28;20261;-76
2022/05/16 07:17:57;;;;;;;12.45;4.25;;;22.60;99.90;;;;;;5023277;28;20218;-77
2022/05/16 07:20:24;;;;;;;11.13;5.22;;;22.90;99.90;;;;;;5023016;28;20225;-78
2022/05/16 07:22:52;;;;;;;10.60;5.00;;;23.50;99.90;;;;;;5023112;28;20214;-76
2022/05/16 07:25:28;;;;;;;9.77;4.47;;;24.10;99.90;;;;;;5022884;28;20319;-77
2022/05/16 07:27:59;;;;;;;12.15;4.65;;;25.00;99.50;;;;;;5023346;28;20209;-77
2022/05/16 07:30:33;;;;;;;10.45;4.70;;;25.80;98.00;;;;;;5022978;28;20194;-78
2022/05/16 07:33:02;;;;;;;11.73;4.85;;;26.40;97.00;;;;;;5025035;28;20202;-78
2022/05/16 07:35:32;;;;;;;8.35;4.60;;;27.00;95.80;;;;;;5019434;28;20302;-76
2022/05/16 07:38:00;;;;;;;10.45;4.75;;;27.30;94.40;;;;;;5024099;28;20267;-77
2022/05/16 07:40:32;;;;;;;11.00;5.10;;;27.60;93.70;;;;;;5019507;28;20420;-76
2022/05/16 07:42:59;;;;;;;10.23;5.00;;;27.70;93.30;;;;;;5036054;28;20228;-77
2022/05/16 07:45:27;;;;;;;7.03;4.60;;;27.70;92.70;;;;;;5049946;28;20205;-79
2022/05/16 07:47:55;;;;;;;8.20;4.70;;;27.80;92.20;;;;;;5035278;28;20222;-79
2022/05/16 07:50:23;;;;;;;11.15;5.45;;;27.90;91.50;;;;;;5042706;28;20201;-77
2022/05/16 07:52:51;;;;;;;7.72;4.80;;;28.10;90.90;;;;;;5036337;28;20248;-78
2022/05/16 07:55:22;;;;;;;8.23;5.25;;;28.10;90.90;;;;;;5027446;28;20213;-78
2022/05/16 07:57:49;;;;;;;10.80;5.40;;;28.40;90.60;;;;;;5027683;28;20216;-78
2022/05/16 08:00:17;;;;;;;10.00;5.03;;;28.30;89.80;;;;;;5025167;28;20218;-76
2022/05/16 08:02:44;;;;;;;12.45;5.05;;;28.10;89.10;;;;;;5024700;28;20336;-77
2022/05/16 08:05:15;;;;;;;10.90;4.95;;;27.70;89.00;;;;;;5021567;28;20198;-77
2022/05/16 08:10:29;;;;;;;8.75;5.45;;;26.90;89.70;;;;;;5029967;28;20225;-75
2022/05/16 08:13:03;;;;;;;13.15;5.25;;;26.40;90.20;;;;;;5023167;28;20228;-75
2022/05/16 08:15:31;;;;;;;12.98;5.28;;;26.00;90.70;;;;;;5020444;28;20253;-77
2022/05/16 08:17:58;;;;;;;13.68;5.85;;;25.60;91.30;;;;;;5031205;28;20271;-75
2022/05/16 08:20:26;;;;;;;8.82;5.00;;;25.40;92.10;;;;;;5024776;28;20679;-76
2022/05/16 08:22:53;;;;;;;13.20;5.25;;;25.10;91.90;;;;;;5024876;28;20567;-76
2022/05/16 08:25:20;;;;;;;14.77;5.28;;;25.00;92.30;;;;;;5028182;28;20524;-74
2022/05/16 08:27:50;;;;;;;10.68;5.43;;;24.80;92.50;;;;;;5026163;28;20256;-75
2022/05/16 08:30:19;;;;;;;10.30;5.22;;;24.60;92.90;;;;;;5023210;28;20278;-75
2022/05/16 08:32:46;;;;;;;13.55;5.25;;;24.50;93.20;;;;;;5025759;28;20206;-76
2022/05/16 08:35:14;;;;;;;10.05;4.95;;;24.40;93.50;;;;;;5026127;28;20279;-74
2022/05/16 08:41:01;;;;;;;14.40;5.60;;;24.20;95.20;;;;;;5031751;28;20250;-76
2022/05/16 08:43:38;;;;;;;19.13;5.70;;;24.10;96.20;;;;;;5021678;28;20202;-76
2022/05/16 08:46:17;;;;;;;15.65;5.70;;;24.00;97.10;;;;;;5024589;28;20660;-74
2022/05/16 08:49:01;;;;;;;15.50;5.85;;;23.90;97.70;;;;;;5027227;28;20194;-76
2022/05/16 08:51:31;;;;;;;12.35;6.13;;;23.90;98.10;;;;;;5031757;28;20619;-75
2022/05/16 08:54:23;;;;;;;13.48;6.22;;;23.80;98.50;;;;;;5025231;28;20281;-75
2022/05/16 08:56:51;;;;;;;17.25;6.20;;;23.80;98.60;;;;;;5017982;28;20218;-76
2022/05/16 08:59:24;;;;;;;13.55;6.05;;;23.80;99.40;;;;;;5022856;28;20629;-74
2022/05/16 09:01:59;;;;;;;13.93;5.80;;;23.70;99.90;;;;;;5025815;28;20233;-75
2022/05/16 09:04:35;;;;;;;13.43;5.72;;;24.00;99.90;;;;;;5022918;28;20194;-75
2022/05/16 09:07:11;;;;;;;10.32;5.60;;;24.20;99.90;;;;;;5024196;28;20665;-76
2022/05/16 09:09:44;;;;;;;10.10;5.38;;;24.40;99.90;;;;;;5024988;28;20218;-73
2022/05/16 09:12:25;;;;;;;10.38;4.68;;;24.90;99.90;;;;;;5023569;28;20645;-75
2022/05/16 09:15:03;;;;;;;10.40;4.38;;;25.10;99.30;;;;;;5020145;28;20311;-76
2022/05/16 09:17:53;;;;;;;9.85;4.03;;;25.40;99.20;;;;;;5021180;28;20232;-76
2022/05/16 09:20:30;;;;;;;9.27;4.68;;;25.80;98.80;;;;;;5018926;28;20287;-74
2022/05/16 09:23:32;;;;;;;12.75;4.05;;;26.40;99.90;;;;;;5023711;28;20593;-75
2022/05/16 09:26:27;;;;;;;7.82;4.05;;;26.70;97.60;;;;;;5023723;28;20222;-76
2022/05/16 09:29:00;;;;;;;6.60;3.65;;;26.90;96.40;;;;;;5023998;28;20194;-77
2022/05/16 09:31:39;;;;;;;4.82;3.70;;;27.20;96.50;;;;;;5021958;28;20613;-75
2022/05/16 09:34:09;;;;;;;6.65;3.40;;;27.50;96.30;;;;;;5023933;28;20197;-75
2022/05/16 09:36:40;;;;;;;7.60;3.80;;;27.70;95.30;;;;;;5022643;28;20211;-77
2022/05/16 09:39:09;;;;;;;7.97;3.55;;;28.10;95.00;;;;;;5021887;28;20205;-74
2022/05/16 09:41:46;;;;;;;7.70;3.17;;;28.10;93.70;;;;;;5020306;28;20234;-75
2022/05/16 09:44:28;;;;;;;6.18;3.30;;;28.20;93.70;;;;;;5022982;28;20306;-75
2022/05/16 09:47:23;;;;;;;6.78;3.38;;;28.40;93.50;;;;;;5023158;28;20232;-76
2022/05/16 09:50:02;;;;;;;4.63;3.00;;;28.40;92.70;;;;;;5018463;28;20256;-76
2022/05/16 09:52:32;;;;;;;6.13;3.20;;;28.30;92.60;;;;;;5022120;28;20213;-76
2022/05/16 09:55:04;;;;;;;4.47;2.88;;;28.20;92.70;;;;;;5021887;28;20225;-76
2022/05/16 09:57:38;;;;;;;7.68;2.90;;;28.20;92.70;;;;;;5016736;28;20257;-74
2022/05/16 10:00:31;;;;;;;7.03;3.03;;;28.00;92.60;;;;;;5025753;28;20677;-76
2022/05/16 10:03:30;;;;;;;7.80;4.03;;;27.80;92.60;;;;;;5020811;28;20284;-74
2022/05/16 10:06:00;;;;;;;4.63;3.13;;;27.50;92.70;;;;;;5012888;28;20210;-76
2022/05/16 10:08:31;;;;;;;7.18;2.90;;;27.30;93.40;;;;;;5024953;28;20705;-76
2022/05/16 10:11:02;;;;;;;5.95;3.30;;;27.30;93.40;;;;;;5023940;28;20218;-77
2022/05/16 10:13:30;;;;;;;4.93;3.20;;;27.40;93.70;;;;;;5021431;28;20269;-73
2022/05/16 10:16:00;;;;;;;5.63;3.00;;;27.50;93.80;;;;;;5018637;28;20278;-74
2022/05/16 10:18:29;;;;;;;3.88;2.97;;;27.70;93.60;;;;;;5027688;28;20275;-75
2022/05/16 10:21:01;;;;;;;4.72;3.40;;;27.80;93.60;;;;;;5017865;28;20301;-75
2022/05/16 10:23:41;;;;;;;5.15;3.20;;;28.10;93.30;;;;;;5020490;28;20202;-77
2022/05/16 10:26:14;;;;;;;5.75;3.20;;;28.30;93.40;;;;;;5022748;28;20214;-78
2022/05/16 10:28:49;;;;;;;7.55;3.50;;;28.50;93.00;;;;;;5030978;28;20221;-77
2022/05/16 10:34:16;;;;;;;6.53;3.45;;;29.10;92.20;;;;;;5020303;28;20198;-76
2022/05/16 10:36:54;;;;;;;4.82;3.17;;;29.20;91.90;;;;;;5024466;28;20212;-76
2022/05/16 10:39:28;;;;;;;2.90;2.40;;;29.50;91.70;;;;;;5025702;28;20225;-77
2022/05/16 10:42:12;;;;;;;4.70;2.58;;;29.60;91.20;;;;;;5033363;28;20233;-77
2022/05/16 10:44:53;;;;;;;5.70;2.85;;;29.40;90.60;;;;;;5013354;28;20193;-76
2022/05/16 10:47:30;;;;;;;3.38;2.33;;;29.40;90.80;;;;;;5020096;28;20205;-76
2022/05/16 10:50:20;;;;;;;5.85;2.97;;;29.40;90.60;;;;;;5035011;28;20232;-75
2022/05/16 10:52:56;;;;;;;5.32;3.08;;;29.40;90.80;;;;;;5019797;28;20253;-76
2022/05/16 10:55:23;;;;;;;4.68;2.72;;;29.40;90.30;;;;;;5032462;28;20213;-77
2022/05/16 10:58:13;;;;;;;5.45;2.78;;;29.70;90.60;;;;;;5018959;28;20207;-78
2022/05/16 11:00:45;;;;;;;5.10;2.60;;;30.10;90.00;;;;;;5015218;28;20681;-78
2022/05/16 11:03:38;;;;;;;4.80;2.90;;;30.20;89.70;;;;;;5016719;28;20685;-76
2022/05/16 11:06:24;;;;;;;5.75;2.58;;;30.60;88.30;;;;;;5018939;28;20681;-75
2022/05/16 11:09:05;;;;;;;4.30;2.80;;;30.80;87.90;;;;;;5034823;28;20205;-77
2022/05/16 11:11:57;;;;;;;2.83;2.25;;;30.80;87.50;;;;;;5020241;28;20211;-77
2022/05/16 11:14:46;;;;;;;7.82;2.38;;;30.70;87.20;;;;;;5021933;28;20205;-78
2022/05/16 11:17:19;;;;;;;5.13;2.42;;;30.60;87.20;;;;;;5021805;28;20237;-78
2022/05/16 11:19:56;;;;;;;5.90;2.80;;;30.60;87.20;;;;;;5017877;28;20263;-76
2022/05/16 11:22:39;;;;;;;4.22;2.50;;;30.50;86.20;;;;;;5017936;28;20328;-75
2022/05/16 11:25:18;;;;;;;5.15;2.58;;;30.50;86.80;;;;;;5017174;28;20225;-75
2022/05/16 11:28:03;;;;;;;4.97;3.05;;;30.60;87.80;;;;;;5035863;28;20198;-77
2022/05/16 11:31:01;;;;;;;6.47;4.00;;;30.40;87.00;;;;;;5017667;28;20259;-74
2022/05/16 11:33:33;;;;;;;6.63;3.95;;;30.10;87.70;;;;;;5012868;28;20210;-75
2022/05/16 11:36:22;;;;;;;4.38;3.55;;;29.80;87.90;;;;;;5016336;28;20287;-74
2022/05/16 11:39:05;;;;;;;7.65;4.72;;;30.00;88.70;;;;;;5016134;28;20323;-75
2022/05/16 11:41:44;;;;;;;8.40;4.90;;;30.10;88.40;;;;;;5018226;28;20252;-74
2022/05/16 11:44:31;;;;;;;14.10;5.53;;;30.10;88.00;;;;;;5024907;28;20209;-76
2022/05/16 11:47:09;;;;;;;7.38;5.40;;;30.20;88.60;;;;;;5020802;28;20198;-76
2022/05/16 11:50:24;;;;;;;8.23;5.95;;;30.20;88.40;;;;;;5027051;28;20233;-77
2022/05/16 11:53:37;;;;;;;7.78;5.03;;;30.20;88.00;;;;;;5018508;28;20654;-76
2022/05/16 12:01:39;;;;;;;8.85;5.95;;;29.90;88.30;;;;;;5026970;28;20230;-76
2022/05/16 12:04:20;;;;;;;9.65;6.22;;;29.80;88.60;;;;;;5026262;28;20210;-78
2022/05/16 12:06:50;;;;;;;11.05;6.63;;;29.50;89.30;;;;;;5023616;28;20614;-76
2022/05/16 12:09:17;;;;;;;9.05;6.10;;;29.40;90.20;;;;;;5030270;28;20221;-76
2022/05/16 12:12:10;;;;;;;11.00;6.88;;;29.60;90.50;;;;;;5024620;28;20217;-76
2022/05/16 12:14:42;;;;;;;8.82;6.32;;;29.70;90.00;;;;;;5023923;28;20356;-76
2022/05/16 12:17:14;;;;;;;7.65;5.38;;;29.70;90.20;;;;;;5029233;28;20209;-75
2022/05/16 12:19:43;;;;;;;13.63;7.22;;;29.70;90.20;;;;;;5029962;28;20681;-79
2022/05/16 12:22:21;;;;;;;8.98;7.20;;;29.60;90.10;;;;;;5022437;28;20257;-74
2022/05/16 12:24:51;;;;;;;8.98;6.18;;;29.50;90.30;;;;;;5023933;28;20249;-77
2022/05/16 12:27:40;;;;;;;8.63;6.22;;;29.20;90.50;;;;;;5024995;28;20615;-76
2022/05/16 12:30:35;;;;;;;9.20;6.00;;;29.10;90.90;;;;;;5021090;28;20245;-76
2022/05/16 12:33:02;;;;;;;8.60;5.93;;;29.10;91.10;;;;;;5024000;28;20206;-77
2022/05/16 12:35:44;;;;;;;8.60;6.22;;;29.00;91.20;;;;;;5024001;28;20198;-75
2022/05/16 12:38:13;;;;;;;10.55;6.35;;;28.90;91.30;;;;;;5020285;28;20206;-75
2022/05/16 12:41:03;;;;;;;7.63;5.95;;;28.80;92.00;;;;;;5020359;28;20232;-78
2022/05/16 12:43:41;;;;;;;9.38;7.18;;;28.70;92.30;;;;;;5019614;28;20229;-75
2022/05/16 12:46:32;;;;;;;12.13;7.22;;;28.60;92.60;;;;;;5022688;28;20772;-74
2022/05/16 12:49:18;;;;;;;8.65;5.65;;;28.30;93.10;;;;;;5021714;28;20303;-74
2022/05/16 12:51:56;;;;;;;7.40;4.68;;;28.00;96.30;;;;;;5020746;28;20264;-75
2022/05/16 12:54:52;;;;;;;8.85;4.80;;;27.60;97.20;;;;;;5022531;28;20262;-74
2022/05/16 12:57:45;;;;;;;7.97;4.53;;;27.00;98.40;;;;;;5020930;28;20233;-75
2022/05/16 13:00:21;;;;;;;6.30;4.07;;;26.40;99.10;;;;;;5032000;28;20201;-76
2022/05/16 13:03:27;;;;;;;5.57;4.22;;;25.90;99.90;;;;;;5022137;28;20696;-75
2022/05/16 13:05:59;;;;;;;6.55;4.43;;;25.70;99.90;;;;;;5015909;28;20202;-76
2022/05/16 13:08:50;;;;;;;7.15;4.50;;;25.70;99.90;;;;;;5020203;28;20205;-76
2022/05/16 13:11:56;;;;;;;5.35;3.97;;;25.60;99.90;;;;;;5026479;28;20623;-75
2022/05/16 13:14:48;;;;;;;6.38;3.72;;;25.60;99.90;;;;;;5019629;28;20198;-77
2022/05/16 13:17:36;;;;;;;7.22;4.00;;;25.80;99.90;;;;;;5019442;28;20208;-77
2022/05/16 13:20:15;;;;;;;5.65;3.65;;;26.00;99.90;;;;;;5017641;28;20218;-75
2022/05/16 13:22:48;;;;;;;6.93;4.03;;;26.10;99.90;;;;;;5035240;28;20233;-79
2022/05/16 13:25:17;;;;;;;7.32;4.45;;;26.20;99.90;;;;;;5024942;28;20225;-77
2022/05/16 13:30:42;;;;;;;8.95;3.85;;;26.10;99.90;;;;;;5023766;28;20206;-78
2022/05/16 13:33:33;;;;;;;6.20;3.75;;;26.20;99.90;;;;;;5023719;28;20210;-75
2022/05/16 13:36:21;;;;;;;6.72;4.43;;;26.20;99.90;;;;;;5037119;28;20791;-76
2022/05/16 13:38:58;;;;;;;8.55;4.18;;;26.40;99.90;;;;;;5023288;28;20250;-78
2022/05/16 13:41:27;;;;;;;9.73;4.68;;;26.20;99.90;;;;;;5022905;28;20330;-77
2022/05/16 13:43:58;;;;;;;6.22;4.13;;;26.20;99.90;;;;;;5022581;28;20351;-78
2022/05/16 13:46:27;;;;;;;8.68;5.53;;;26.00;99.90;;;;;;5020817;28;20581;-77
2022/05/16 13:49:05;;;;;;;8.00;5.72;;;25.80;99.90;;;;;;5032896;28;20567;-77
2022/05/16 13:51:40;;;;;;;8.30;6.35;;;25.70;99.90;;;;;;5024396;28;20201;-77
2022/05/16 13:54:13;;;;;;;9.55;6.70;;;25.60;99.90;;;;;;5028807;28;20312;-77
2022/05/16 13:56:46;;;;;;;9.32;7.13;;;25.40;99.90;;;;;;5020340;28;20205;-78
2022/05/16 13:59:13;;;;;;;11.70;7.72;;;25.20;99.90;;;;;;5020924;28;20724;-77
2022/05/16 14:01:50;;;;;;;11.88;8.82;;;25.10;99.90;;;;;;5019709;28;20238;-77
2022/05/16 14:04:21;;;;;;;16.10;9.98;;;25.10;99.90;;;;;;5026034;28;20205;-76
2022/05/16 14:06:51;;;;;;;16.55;12.88;;;24.90;99.90;;;;;;5023612;28;20684;-77
2022/05/16 14:09:25;;;;;;;20.40;15.60;;;24.90;99.90;;;;;;5032399;28;20931;-77
2022/05/16 14:11:54;;;;;;;21.73;15.07;;;24.80;99.90;;;;;;5021455;28;20259;-77